createdAt,value
2023-03-10T00:02:14.181Z,5.90
2023-03-10T00:06:28.693Z,5.90
2023-03-10T00:10:32.423Z,5.90
2023-03-10T00:14:36.116Z,5.90
2023-03-10T00:19:28.809Z,5.90
2023-03-10T00:23:58.773Z,5.70
2023-03-10T00:28:02.528Z,5.50
2023-03-10T00:32:06.738Z,5.40
2023-03-10T00:36:37.285Z,5.40
2023-03-10T00:40:43.477Z,5.30
2023-03-10T00:44:47.112Z,5.40
2023-03-10T00:48:51.289Z,5.40
2023-03-10T00:53:22.603Z,5.40
2023-03-10T00:57:28.677Z,5.30
2023-03-10T01:01:35.915Z,5.20
2023-03-10T01:05:40.133Z,5.30
2023-03-10T01:09:45.452Z,5.20
2023-03-10T01:13:51.908Z,5.20
2023-03-10T01:18:02.453Z,5.30
2023-03-10T01:22:06.270Z,5.30
2023-03-10T01:26:10.293Z,5.20
2023-03-10T01:30:44.209Z,5.30
2023-03-10T01:35:13.627Z,5.30
2023-03-10T01:39:17.714Z,5.30
2023-03-10T01:43:35.160Z,5.30
2023-03-10T01:47:40.346Z,5.30
2023-03-10T01:51:49.321Z,5.30
2023-03-10T01:55:57.059Z,5.40
2023-03-10T02:00:01.868Z,5.40
2023-03-10T02:04:35.498Z,5.50
2023-03-10T02:08:44.376Z,5.50
2023-03-10T02:12:49.542Z,5.50
2023-03-10T02:16:53.473Z,5.50
2023-03-10T02:21:32.059Z,5.50
2023-03-10T02:25:44.459Z,5.50
2023-03-10T02:30:04.292Z,5.60
2023-03-10T02:34:11.419Z,5.70
2023-03-10T02:38:16.309Z,5.80
2023-03-10T02:42:20.832Z,5.80
2023-03-10T02:46:26.148Z,5.70
2023-03-10T02:50:39.178Z,5.70
2023-03-10T02:54:42.958Z,5.70
2023-03-10T02:58:46.725Z,5.60
2023-03-10T03:02:53.165Z,5.60
2023-03-10T03:06:57.448Z,5.60
2023-03-10T03:11:09.782Z,5.50
2023-03-10T03:15:15.957Z,5.40
2023-03-10T03:19:21.331Z,5.50
2023-03-10T03:23:25.135Z,5.40
2023-03-10T03:27:31.932Z,5.60
2023-03-10T03:31:35.988Z,5.50
2023-03-10T03:35:59.888Z,5.60
2023-03-10T03:40:12.931Z,5.50
2023-03-10T03:44:19.036Z,5.50
2023-03-10T03:48:26.954Z,5.50
2023-03-10T03:52:32.340Z,5.50
2023-03-10T03:56:36.733Z,5.50
2023-03-10T04:06:34.617Z,5.30
2023-03-10T04:11:33.191Z,5.20
2023-03-10T04:15:39.970Z,5.00
2023-03-10T04:19:45.894Z,5.00
2023-03-10T04:24:10.998Z,5.00
2023-03-10T04:28:20.041Z,4.90
2023-03-10T04:32:27.970Z,4.90
2023-03-10T04:36:31.887Z,4.90
2023-03-10T04:40:38.974Z,4.80
2023-03-10T04:44:42.855Z,4.90
2023-03-10T04:48:48.520Z,4.90
2023-03-10T04:53:18.308Z,5.00
2023-03-10T04:57:24.692Z,5.00
2023-03-10T05:01:33.344Z,4.90
2023-03-10T05:05:57.088Z,5.00
2023-03-10T05:10:56.310Z,5.00
2023-03-10T05:15:05.427Z,5.10
2023-03-10T05:19:09.271Z,5.20
2023-03-10T05:23:14.792Z,5.30
2023-03-10T05:27:22.151Z,5.40
2023-03-10T05:31:27.585Z,5.50
2023-03-10T05:35:51.373Z,5.70
2023-03-10T05:39:56.941Z,5.80
2023-03-10T05:44:04.147Z,6.00
2023-03-10T05:48:10.477Z,6.20
2023-03-10T05:52:14.268Z,6.20
2023-03-10T05:56:22.482Z,6.30
2023-03-10T06:00:30.768Z,6.40
2023-03-10T06:04:37.869Z,6.50
2023-03-10T06:09:06.606Z,6.60
2023-03-10T06:14:01.955Z,6.70
2023-03-10T06:18:07.208Z,6.80
2023-03-10T06:22:11.212Z,7.00
2023-03-10T06:26:17.211Z,7.10
2023-03-10T06:30:21.217Z,7.30
2023-03-10T06:34:26.704Z,7.40
2023-03-10T06:38:30.824Z,7.70
2023-03-10T06:42:34.673Z,7.90
2023-03-10T06:46:38.447Z,8.10
2023-03-10T06:50:44.730Z,8.30
2023-03-10T06:55:01.789Z,8.50
2023-03-10T06:59:05.619Z,8.60
2023-03-10T07:03:11.769Z,8.80
2023-03-10T07:07:17.221Z,8.90
2023-03-10T07:11:20.946Z,9.00
2023-03-10T07:15:24.778Z,9.00
2023-03-10T07:19:28.592Z,9.10
2023-03-10T07:23:34.482Z,9.20
2023-03-10T07:27:38.436Z,9.40
2023-03-10T07:31:42.262Z,9.70
2023-03-10T07:36:48.726Z,9.80
2023-03-10T07:40:54.044Z,10.00
2023-03-10T07:44:57.862Z,10.20
2023-03-10T07:49:09.713Z,10.30
2023-03-10T07:53:13.394Z,10.40
2023-03-10T07:57:18.990Z,10.50
2023-03-10T08:01:23.968Z,10.60
2023-03-10T08:05:27.821Z,10.80
2023-03-10T08:09:32.105Z,11.00
2023-03-10T08:13:37.874Z,11.00
2023-03-10T08:17:41.978Z,11.20
2023-03-10T08:21:45.839Z,11.50
2023-03-10T08:25:49.646Z,11.70
2023-03-10T08:35:37.119Z,12.50
2023-03-10T08:39:41.147Z,12.70
2023-03-10T08:43:49.162Z,13.00
2023-03-10T08:47:53.315Z,13.00
2023-03-10T08:51:59.417Z,13.10
2023-03-10T08:56:33.116Z,13.30
2023-03-10T09:00:36.942Z,13.30
2023-03-10T09:04:40.771Z,13.20
2023-03-10T09:09:00.757Z,13.30
2023-03-10T09:13:13.658Z,13.20
2023-03-10T09:18:39.877Z,13.00
2023-03-10T09:22:44.144Z,12.80
2023-03-10T09:26:51.783Z,12.70
2023-03-10T09:30:55.553Z,12.60
2023-03-10T09:34:59.316Z,12.40
2023-03-10T09:39:34.716Z,12.10
2023-03-10T09:43:46.459Z,12.00
2023-03-10T09:48:12.427Z,11.70
2023-03-10T09:52:39.821Z,11.50
2023-03-10T09:56:44.195Z,11.30
2023-03-10T10:00:49.419Z,11.30
2023-03-10T10:05:23.968Z,11.50
2023-03-10T10:09:35.235Z,11.50
2023-03-10T10:13:41.762Z,11.40
2023-03-10T10:18:17.856Z,11.20
2023-03-10T10:22:28.316Z,11.10
2023-03-10T10:26:31.956Z,11.10
2023-03-10T10:30:37.824Z,11.00
2023-03-10T10:35:39.980Z,11.00
2023-03-10T10:39:45.339Z,11.00
2023-03-10T10:43:50.683Z,11.00
2023-03-10T10:47:58.516Z,10.80
2023-03-10T10:52:03.935Z,10.80
2023-03-10T10:56:24.242Z,10.90
2023-03-10T11:00:30.127Z,10.80
2023-03-10T11:05:09.704Z,10.90
2023-03-10T11:09:15.876Z,10.90
2023-03-10T11:13:31.009Z,10.90
2023-03-10T11:17:43.392Z,11.10
2023-03-10T11:21:53.094Z,11.30
2023-03-10T11:30:55.046Z,11.50
2023-03-10T11:34:58.842Z,11.50
2023-03-10T11:39:11.307Z,11.50
2023-03-10T11:43:29.166Z,11.60
2023-03-10T11:47:52.322Z,11.60
2023-03-10T11:52:00.058Z,11.60
2023-03-10T11:56:05.631Z,11.40
2023-03-10T12:00:24.639Z,11.40
2023-03-10T12:04:35.092Z,11.40
2023-03-10T12:08:39.667Z,11.40
2023-03-10T12:12:44.939Z,11.50
2023-03-10T12:16:50.188Z,11.50
2023-03-10T12:21:24.016Z,11.50
2023-03-10T12:25:50.611Z,11.50
2023-03-10T12:29:54.595Z,11.50
2023-03-10T12:34:22.619Z,11.60
2023-03-10T12:38:52.630Z,11.60
2023-03-10T12:42:56.391Z,11.60
2023-03-10T12:47:12.198Z,11.60
2023-03-10T12:51:20.782Z,11.60
2023-03-10T12:55:28.130Z,11.60
2023-03-10T12:59:46.695Z,11.70
2023-03-10T13:03:53.277Z,11.70
2023-03-10T13:08:01.018Z,11.60
2023-03-10T13:12:13.318Z,11.60
2023-03-10T13:16:22.537Z,11.60
2023-03-10T13:20:26.218Z,11.60
2023-03-10T13:25:25.525Z,11.60
2023-03-10T13:29:30.877Z,11.50
2023-03-10T13:33:42.985Z,11.60
2023-03-10T13:38:08.273Z,11.70
2023-03-10T13:42:44.207Z,11.90
2023-03-10T13:46:53.072Z,11.90
2023-03-10T13:51:32.433Z,12.10
2023-03-10T13:55:46.909Z,12.00
2023-03-10T13:59:51.628Z,12.00
2023-03-10T14:03:59.825Z,11.90
2023-03-10T14:08:04.934Z,11.90
2023-03-10T14:12:10.758Z,11.80
2023-03-10T14:16:14.643Z,11.90
2023-03-10T14:20:35.758Z,11.90
2023-03-10T14:24:39.543Z,11.90
2023-03-10T14:28:57.784Z,12.00
2023-03-10T14:33:02.777Z,12.00
2023-03-10T14:37:07.981Z,12.00
2023-03-10T14:41:16.665Z,12.00
2023-03-10T14:45:28.898Z,12.10
2023-03-10T14:49:32.613Z,12.10
2023-03-10T14:53:38.103Z,12.10
2023-03-10T14:57:42.913Z,12.10
2023-03-10T15:02:08.479Z,12.00
2023-03-10T15:06:13.981Z,11.90
2023-03-10T15:10:55.856Z,11.70
2023-03-10T15:15:01.124Z,11.50
2023-03-10T15:19:16.010Z,11.40
2023-03-10T15:23:20.432Z,11.10
2023-03-10T15:27:24.278Z,10.80
2023-03-10T15:31:54.834Z,10.60
2023-03-10T15:36:19.196Z,10.50
2023-03-10T15:40:25.197Z,10.40
2023-03-10T15:44:28.932Z,10.10
2023-03-10T15:48:38.090Z,10.00
2023-03-10T15:52:41.925Z,10.00
2023-03-10T15:56:46.483Z,10.10
2023-03-10T16:01:00.700Z,10.10
2023-03-10T16:05:07.370Z,10.10
2023-03-10T16:09:11.155Z,10.00
2023-03-10T16:13:15.161Z,10.00
2023-03-10T16:17:22.986Z,10.00
2023-03-10T16:21:28.287Z,9.80
2023-03-10T16:25:34.235Z,9.80
2023-03-10T16:29:40.359Z,9.70
2023-03-10T16:33:45.094Z,9.60
2023-03-10T16:37:50.199Z,9.40
2023-03-10T16:41:53.896Z,9.20
2023-03-10T16:46:25.786Z,9.10
2023-03-10T16:50:35.879Z,8.90
2023-03-10T16:54:41.139Z,8.70
2023-03-10T16:58:47.104Z,8.60
2023-03-10T17:02:51.140Z,8.60
2023-03-10T17:06:55.026Z,8.50
2023-03-10T17:11:57.424Z,8.40
2023-03-10T17:16:12.617Z,8.40
2023-03-10T17:20:18.604Z,8.30
2023-03-10T17:24:23.648Z,8.30
2023-03-10T17:28:28.375Z,8.20
2023-03-10T17:32:33.558Z,8.20
2023-03-10T17:36:37.332Z,8.10
2023-03-10T17:40:48.169Z,8.00
2023-03-10T17:44:51.845Z,8.00
2023-03-10T17:49:04.435Z,7.90
2023-03-10T17:53:08.044Z,7.90
2023-03-10T17:57:11.673Z,7.90
2023-03-10T18:01:20.258Z,7.80
2023-03-10T18:05:25.320Z,7.70
2023-03-10T18:09:28.976Z,7.70
2023-03-10T18:13:38.582Z,7.60
2023-03-10T18:17:42.459Z,7.50
2023-03-10T18:21:47.632Z,7.40
2023-03-10T18:25:51.695Z,7.40
2023-03-10T18:35:26.204Z,7.30
2023-03-10T18:40:01.073Z,7.20
2023-03-10T18:44:17.907Z,7.20
2023-03-10T18:48:25.555Z,7.20
2023-03-10T18:52:33.249Z,7.20
2023-03-10T18:56:38.489Z,7.10
2023-03-10T19:00:42.926Z,7.10
2023-03-10T19:04:48.171Z,7.00
2023-03-10T19:08:53.470Z,7.00
2023-03-10T19:12:59.208Z,6.90
2023-03-10T19:17:02.984Z,6.90
2023-03-10T19:21:07.636Z,6.90
2023-03-10T19:25:13.457Z,6.90
2023-03-10T19:30:11.230Z,6.80
2023-03-10T19:34:16.296Z,6.80
2023-03-10T19:38:20.010Z,6.70
2023-03-10T19:42:24.152Z,6.60
2023-03-10T19:46:27.929Z,6.50
2023-03-10T19:50:58.620Z,6.50
2023-03-10T19:55:02.312Z,6.40
2023-03-10T19:59:32.404Z,6.40
2023-03-10T20:03:36.303Z,6.40
2023-03-10T20:07:41.738Z,6.40
2023-03-10T20:11:58.916Z,6.40
2023-03-10T20:16:02.699Z,6.30
2023-03-10T20:26:42.657Z,6.30
2023-03-10T20:30:46.375Z,6.30
2023-03-10T20:35:04.732Z,6.30
2023-03-10T20:39:08.211Z,6.20
2023-03-10T20:43:13.459Z,6.20
2023-03-10T20:47:21.771Z,6.10
2023-03-10T20:51:25.348Z,6.10
2023-03-10T20:55:31.023Z,6.00
2023-03-10T20:59:51.420Z,6.00
2023-03-10T21:03:56.487Z,5.90
2023-03-10T21:08:00.224Z,5.80
2023-03-10T21:12:29.648Z,5.70
2023-03-10T21:16:38.948Z,5.60
2023-03-10T21:20:42.994Z,5.50
2023-03-10T21:24:46.704Z,5.50
2023-03-10T21:29:15.541Z,5.50
2023-03-10T21:33:23.704Z,5.40
2023-03-10T21:37:27.408Z,5.30
2023-03-10T21:41:33.201Z,5.30
2023-03-10T21:45:37.692Z,5.30
2023-03-10T21:49:42.985Z,5.30
2023-03-10T21:54:11.496Z,5.40
2023-03-10T21:58:26.188Z,5.30
2023-03-10T22:02:31.498Z,5.30
2023-03-10T22:06:36.600Z,5.20
2023-03-10T22:10:40.489Z,5.00
2023-03-10T22:14:44.430Z,5.00
2023-03-10T22:18:49.614Z,4.70
2023-03-10T22:22:57.470Z,4.70
2023-03-10T22:27:01.130Z,4.60
2023-03-10T22:31:07.400Z,4.50
2023-03-10T22:35:22.808Z,4.50
2023-03-10T22:39:28.067Z,4.40
2023-03-10T22:43:31.601Z,4.40
2023-03-10T22:47:40.993Z,4.30
2023-03-10T22:51:44.600Z,4.20
2023-03-10T22:55:51.392Z,4.10
2023-03-10T23:00:32.195Z,4.10
2023-03-10T23:04:35.956Z,4.00
2023-03-10T23:14:41.427Z,4.00
2023-03-10T23:19:36.077Z,4.00
2023-03-10T23:23:43.816Z,4.00
2023-03-10T23:27:47.443Z,4.10
2023-03-10T23:32:17.847Z,4.10
2023-03-10T23:36:33.777Z,4.20
2023-03-10T23:40:38.499Z,4.20
2023-03-10T23:44:42.298Z,4.10
2023-03-10T23:48:47.469Z,4.10
2023-03-10T23:52:51.028Z,4.30
2023-03-10T23:57:20.426Z,4.10
